Mont Belvieu, TX

8:26 PM CST on February 27, 2015 (GMT -0600)
Whispering Pines | Change Station
CLOSE
Current Station
Personal Weather Station
Location: Baytown, TX
Elevation: 36 ft
Nearby Weather Stations

Elev 36 ft 29.77 °N, 94.92 °W | Updated 3 minutes ago

Mostly Cloudy
Mostly Cloudy
40.6 °F
Feels Like 41 °F
N
0.0
Wind Variable Wind from South

Today
High -- | Low -- °F
--% Chance of Precip.
Yesterday
High -- | Low -- °F
Precip. -- in
6:47 AM 6:17 PM
Waxing Gibbous, 73% visible
Pressure 30.32 in
Visibility 10.0 miles
Clouds Scattered Clouds 10000 ft
Windchill 41 °F
Dew Point 33 °F
Humidity 75%
Rainfall 0.00 in
Snow Depth Not available.
UV 0 out of 12
Pollen 8.40 out of 12
Air Quality Not available.
Flu Activity Not available.
METAR KEFD 280150Z 06006KT 10SM SCT100 07/00 A3032

More Conditions Fewer Conditions

Pressure 30.32 in
Visibility 10.0 miles
Clouds Scattered Clouds 10000 ft
Windchill 41 °F
Dew Point 33 °F
Humidity 75%
Rainfall 0.00 in
Snow Depth Not available.
UV 0 out of 12
Pollen 8.40 out of 12
Air Quality Not available.
Flu Activity Not available.
METAR KEFD 280150Z 06006KT 10SM SCT100 07/00 A3032

More Conditions Fewer Conditions

10-Day Weather Forecast

Almanac

Astronomy

Feb. 27, 2015 Rise Set
Actual Time
Civil Twilight
Nautical Twilight
Astronomical Twilight
Moon
Length of Visible Light
Length of Day
Tomorrow will be .
, % of the Moon is Illuminated

Today's Extremes

State Highs State Lows

Community

WunderPhotos

Upload Photos

1,800,938 photos uploaded!

WunderBlogs® & News

Nearby

Air Quality

  Air Quality AQ Index Pollutant
Not available.

Snow Depth

Station Depth Elevation

Earthquake Activity

City Distance Mag. Time & Date
Minimum magnitude displayed is 2.5.

Coastal Water Temperatures

Place Temperature

Nearby Weather Stations